sensor_id;sensor_type;location;lat;lon;timestamp;P1;durP1;ratioP1;P2;durP2;ratioP2
23470;SDS011;11908;50.806;4.424;2024-01-27T00:01:16;16.67;;;7.00;;
23470;SDS011;11908;50.806;4.424;2024-01-27T00:03:42;20.52;;;7.70;;
23470;SDS011;11908;50.806;4.424;2024-01-27T00:06:08;19.08;;;8.30;;
23470;SDS011;11908;50.806;4.424;2024-01-27T00:08:34;16.40;;;6.57;;
23470;SDS011;11908;50.806;4.424;2024-01-27T00:10:59;13.07;;;7.03;;
23470;SDS011;11908;50.806;4.424;2024-01-27T00:13:25;16.63;;;6.88;;
23470;SDS011;11908;50.806;4.424;2024-01-27T00:15:51;18.98;;;7.72;;
23470;SDS011;11908;50.806;4.424;2024-01-27T00:18:17;16.42;;;7.10;;
23470;SDS011;11908;50.806;4.424;2024-01-27T00:20:42;19.55;;;6.90;;
23470;SDS011;11908;50.806;4.424;2024-01-27T00:23:08;18.65;;;6.82;;
23470;SDS011;11908;50.806;4.424;2024-01-27T00:25:34;21.95;;;7.10;;
23470;SDS011;11908;50.806;4.424;2024-01-27T00:27:59;17.67;;;6.20;;
23470;SDS011;11908;50.806;4.424;2024-01-27T00:30:25;16.83;;;6.55;;
23470;SDS011;11908;50.806;4.424;2024-01-27T00:32:51;15.13;;;6.47;;
23470;SDS011;11908;50.806;4.424;2024-01-27T00:35:17;18.13;;;6.13;;
23470;SDS011;11908;50.806;4.424;2024-01-27T00:37:42;14.30;;;6.30;;
23470;SDS011;11908;50.806;4.424;2024-01-27T00:40:09;20.67;;;6.80;;
23470;SDS011;11908;50.806;4.424;2024-01-27T00:42:35;16.05;;;6.10;;
23470;SDS011;11908;50.806;4.424;2024-01-27T00:45:01;16.95;;;6.53;;
23470;SDS011;11908;50.806;4.424;2024-01-27T00:47:28;15.07;;;6.70;;
23470;SDS011;11908;50.806;4.424;2024-01-27T00:49:53;18.40;;;7.03;;
23470;SDS011;11908;50.806;4.424;2024-01-27T00:52:19;19.30;;;6.50;;
23470;SDS011;11908;50.806;4.424;2024-01-27T00:54:45;21.02;;;6.25;;
23470;SDS011;11908;50.806;4.424;2024-01-27T00:57:11;22.73;;;6.47;;
23470;SDS011;11908;50.806;4.424;2024-01-27T00:59:36;14.50;;;5.90;;
23470;SDS011;11908;50.806;4.424;2024-01-27T01:02:02;18.83;;;5.63;;
23470;SDS011;11908;50.806;4.424;2024-01-27T01:04:28;20.92;;;6.15;;
23470;SDS011;11908;50.806;4.424;2024-01-27T01:06:54;16.98;;;5.70;;
23470;SDS011;11908;50.806;4.424;2024-01-27T01:09:20;19.77;;;6.25;;
23470;SDS011;11908;50.806;4.424;2024-01-27T01:11:45;15.80;;;5.22;;
23470;SDS011;11908;50.806;4.424;2024-01-27T01:14:11;18.33;;;6.22;;
23470;SDS011;11908;50.806;4.424;2024-01-27T01:16:37;16.45;;;5.90;;
23470;SDS011;11908;50.806;4.424;2024-01-27T01:19:03;17.35;;;6.28;;
23470;SDS011;11908;50.806;4.424;2024-01-27T01:21:28;18.23;;;6.32;;
23470;SDS011;11908;50.806;4.424;2024-01-27T01:23:54;15.85;;;5.72;;
23470;SDS011;11908;50.806;4.424;2024-01-27T01:26:20;18.52;;;6.60;;
23470;SDS011;11908;50.806;4.424;2024-01-27T01:28:46;17.40;;;5.78;;
23470;SDS011;11908;50.806;4.424;2024-01-27T01:31:11;14.95;;;5.95;;
23470;SDS011;11908;50.806;4.424;2024-01-27T01:33:37;18.52;;;5.85;;
23470;SDS011;11908;50.806;4.424;2024-01-27T01:36:03;17.60;;;6.07;;
23470;SDS011;11908;50.806;4.424;2024-01-27T01:38:29;20.38;;;6.72;;
23470;SDS011;11908;50.806;4.424;2024-01-27T01:40:54;15.10;;;5.82;;
23470;SDS011;11908;50.806;4.424;2024-01-27T01:43:20;20.15;;;6.68;;
23470;SDS011;11908;50.806;4.424;2024-01-27T01:45:46;18.35;;;6.40;;
23470;SDS011;11908;50.806;4.424;2024-01-27T01:48:12;15.48;;;5.75;;
23470;SDS011;11908;50.806;4.424;2024-01-27T01:50:38;15.50;;;6.15;;
23470;SDS011;11908;50.806;4.424;2024-01-27T01:53:04;15.70;;;5.78;;
23470;SDS011;11908;50.806;4.424;2024-01-27T01:55:30;19.15;;;5.95;;
23470;SDS011;11908;50.806;4.424;2024-01-27T01:57:56;14.75;;;6.38;;
23470;SDS011;11908;50.806;4.424;2024-01-27T02:00:22;16.80;;;6.00;;
23470;SDS011;11908;50.806;4.424;2024-01-27T02:02:48;15.07;;;6.25;;
23470;SDS011;11908;50.806;4.424;2024-01-27T02:05:13;15.70;;;5.97;;
23470;SDS011;11908;50.806;4.424;2024-01-27T02:07:40;13.07;;;5.03;;
23470;SDS011;11908;50.806;4.424;2024-01-27T02:10:06;17.55;;;5.55;;
23470;SDS011;11908;50.806;4.424;2024-01-27T02:12:41;17.52;;;6.07;;
23470;SDS011;11908;50.806;4.424;2024-01-27T02:15:11;19.38;;;6.03;;
23470;SDS011;11908;50.806;4.424;2024-01-27T02:17:40;11.68;;;5.30;;
23470;SDS011;11908;50.806;4.424;2024-01-27T02:20:06;13.02;;;5.05;;
23470;SDS011;11908;50.806;4.424;2024-01-27T02:22:33;13.55;;;5.95;;
23470;SDS011;11908;50.806;4.424;2024-01-27T02:25:00;12.50;;;5.45;;
23470;SDS011;11908;50.806;4.424;2024-01-27T02:27:26;14.63;;;5.35;;
23470;SDS011;11908;50.806;4.424;2024-01-27T02:29:51;12.13;;;5.75;;
23470;SDS011;11908;50.806;4.424;2024-01-27T02:32:17;11.02;;;5.30;;
23470;SDS011;11908;50.806;4.424;2024-01-27T02:34:43;15.88;;;5.93;;
23470;SDS011;11908;50.806;4.424;2024-01-27T02:37:09;15.30;;;5.72;;
23470;SDS011;11908;50.806;4.424;2024-01-27T02:39:35;19.45;;;5.70;;
23470;SDS011;11908;50.806;4.424;2024-01-27T02:42:01;18.60;;;5.55;;
23470;SDS011;11908;50.806;4.424;2024-01-27T02:44:27;18.55;;;5.65;;
23470;SDS011;11908;50.806;4.424;2024-01-27T02:46:53;21.80;;;6.15;;
23470;SDS011;11908;50.806;4.424;2024-01-27T02:49:18;15.70;;;5.80;;
23470;SDS011;11908;50.806;4.424;2024-01-27T02:51:44;13.48;;;5.60;;
23470;SDS011;11908;50.806;4.424;2024-01-27T02:54:10;13.20;;;5.35;;
23470;SDS011;11908;50.806;4.424;2024-01-27T02:56:36;16.90;;;5.82;;
23470;SDS011;11908;50.806;4.424;2024-01-27T02:59:01;10.25;;;5.15;;
23470;SDS011;11908;50.806;4.424;2024-01-27T03:01:27;17.85;;;6.07;;
23470;SDS011;11908;50.806;4.424;2024-01-27T03:03:53;15.45;;;5.97;;
23470;SDS011;11908;50.806;4.424;2024-01-27T03:06:18;17.95;;;6.72;;
23470;SDS011;11908;50.806;4.424;2024-01-27T03:08:44;20.20;;;6.90;;
23470;SDS011;11908;50.806;4.424;2024-01-27T03:11:10;17.17;;;6.10;;
23470;SDS011;11908;50.806;4.424;2024-01-27T03:13:36;21.40;;;6.13;;
23470;SDS011;11908;50.806;4.424;2024-01-27T03:16:01;15.15;;;5.60;;
23470;SDS011;11908;50.806;4.424;2024-01-27T03:18:27;14.68;;;6.30;;
23470;SDS011;11908;50.806;4.424;2024-01-27T03:20:53;15.98;;;5.65;;
23470;SDS011;11908;50.806;4.424;2024-01-27T03:23:19;12.75;;;5.72;;
23470;SDS011;11908;50.806;4.424;2024-01-27T03:25:45;19.48;;;7.05;;
23470;SDS011;11908;50.806;4.424;2024-01-27T03:28:10;15.52;;;5.85;;
23470;SDS011;11908;50.806;4.424;2024-01-27T03:30:36;18.02;;;5.75;;
23470;SDS011;11908;50.806;4.424;2024-01-27T03:33:02;14.93;;;5.60;;
23470;SDS011;11908;50.806;4.424;2024-01-27T03:35:28;14.38;;;6.40;;
23470;SDS011;11908;50.806;4.424;2024-01-27T03:37:54;17.05;;;5.72;;
23470;SDS011;11908;50.806;4.424;2024-01-27T03:40:19;20.80;;;6.53;;
23470;SDS011;11908;50.806;4.424;2024-01-27T03:42:45;16.27;;;6.25;;
23470;SDS011;11908;50.806;4.424;2024-01-27T03:45:11;19.40;;;6.35;;
23470;SDS011;11908;50.806;4.424;2024-01-27T03:47:36;18.10;;;6.75;;
23470;SDS011;11908;50.806;4.424;2024-01-27T03:50:02;19.75;;;6.28;;
23470;SDS011;11908;50.806;4.424;2024-01-27T03:52:28;20.10;;;6.57;;
23470;SDS011;11908;50.806;4.424;2024-01-27T03:54:54;18.20;;;6.50;;
23470;SDS011;11908;50.806;4.424;2024-01-27T03:57:19;22.20;;;6.30;;
23470;SDS011;11908;50.806;4.424;2024-01-27T03:59:46;14.00;;;5.85;;
23470;SDS011;11908;50.806;4.424;2024-01-27T04:02:11;14.55;;;6.13;;
23470;SDS011;11908;50.806;4.424;2024-01-27T04:04:37;15.50;;;6.10;;
23470;SDS011;11908;50.806;4.424;2024-01-27T04:07:03;25.77;;;6.47;;
23470;SDS011;11908;50.806;4.424;2024-01-27T04:09:28;18.27;;;6.20;;
23470;SDS011;11908;50.806;4.424;2024-01-27T04:11:54;17.25;;;6.07;;
23470;SDS011;11908;50.806;4.424;2024-01-27T04:14:20;18.88;;;6.30;;
23470;SDS011;11908;50.806;4.424;2024-01-27T04:16:45;17.15;;;6.25;;
23470;SDS011;11908;50.806;4.424;2024-01-27T04:19:11;19.98;;;7.07;;
23470;SDS011;11908;50.806;4.424;2024-01-27T04:21:37;17.48;;;5.93;;
23470;SDS011;11908;50.806;4.424;2024-01-27T04:24:02;18.58;;;6.10;;
23470;SDS011;11908;50.806;4.424;2024-01-27T04:26:28;13.65;;;6.00;;
23470;SDS011;11908;50.806;4.424;2024-01-27T04:28:54;17.33;;;6.90;;
23470;SDS011;11908;50.806;4.424;2024-01-27T04:31:20;19.95;;;6.95;;
23470;SDS011;11908;50.806;4.424;2024-01-27T04:33:46;14.13;;;6.20;;
23470;SDS011;11908;50.806;4.424;2024-01-27T04:36:12;17.63;;;7.43;;
23470;SDS011;11908;50.806;4.424;2024-01-27T04:38:38;21.17;;;7.88;;
23470;SDS011;11908;50.806;4.424;2024-01-27T04:41:04;24.30;;;7.38;;
23470;SDS011;11908;50.806;4.424;2024-01-27T04:43:29;23.98;;;7.53;;
23470;SDS011;11908;50.806;4.424;2024-01-27T04:45:55;19.20;;;6.80;;
23470;SDS011;11908;50.806;4.424;2024-01-27T04:48:21;16.15;;;6.78;;
23470;SDS011;11908;50.806;4.424;2024-01-27T04:50:47;17.02;;;6.35;;
23470;SDS011;11908;50.806;4.424;2024-01-27T04:53:13;14.95;;;6.32;;
23470;SDS011;11908;50.806;4.424;2024-01-27T04:55:38;24.65;;;7.65;;
23470;SDS011;11908;50.806;4.424;2024-01-27T04:58:04;24.58;;;7.53;;
23470;SDS011;11908;50.806;4.424;2024-01-27T05:00:31;19.80;;;6.78;;
23470;SDS011;11908;50.806;4.424;2024-01-27T05:02:57;17.77;;;7.32;;
23470;SDS011;11908;50.806;4.424;2024-01-27T05:05:28;21.98;;;7.10;;
23470;SDS011;11908;50.806;4.424;2024-01-27T05:07:54;27.08;;;7.57;;
23470;SDS011;11908;50.806;4.424;2024-01-27T05:10:19;21.00;;;7.35;;
23470;SDS011;11908;50.806;4.424;2024-01-27T05:12:46;27.33;;;7.45;;
23470;SDS011;11908;50.806;4.424;2024-01-27T05:15:12;18.10;;;7.85;;
23470;SDS011;11908;50.806;4.424;2024-01-27T05:17:38;22.75;;;7.35;;
23470;SDS011;11908;50.806;4.424;2024-01-27T05:20:03;21.65;;;6.97;;
23470;SDS011;11908;50.806;4.424;2024-01-27T05:22:34;18.00;;;6.80;;
23470;SDS011;11908;50.806;4.424;2024-01-27T05:25:00;15.48;;;6.90;;
23470;SDS011;11908;50.806;4.424;2024-01-27T05:27:25;24.75;;;8.70;;
23470;SDS011;11908;50.806;4.424;2024-01-27T05:29:51;19.80;;;8.63;;
23470;SDS011;11908;50.806;4.424;2024-01-27T05:32:17;24.83;;;8.30;;
23470;SDS011;11908;50.806;4.424;2024-01-27T05:34:44;22.08;;;8.70;;
23470;SDS011;11908;50.806;4.424;2024-01-27T05:37:09;19.10;;;8.55;;
23470;SDS011;11908;50.806;4.424;2024-01-27T05:39:35;21.20;;;8.20;;
23470;SDS011;11908;50.806;4.424;2024-01-27T05:42:01;22.50;;;9.23;;
23470;SDS011;11908;50.806;4.424;2024-01-27T05:44:27;23.10;;;10.68;;
23470;SDS011;11908;50.806;4.424;2024-01-27T05:46:53;28.85;;;14.57;;
23470;SDS011;11908;50.806;4.424;2024-01-27T05:49:18;25.25;;;11.75;;
23470;SDS011;11908;50.806;4.424;2024-01-27T05:51:44;25.40;;;9.95;;
23470;SDS011;11908;50.806;4.424;2024-01-27T05:54:10;19.77;;;9.52;;
23470;SDS011;11908;50.806;4.424;2024-01-27T05:56:39;33.50;;;10.25;;
23470;SDS011;11908;50.806;4.424;2024-01-27T05:59:05;27.90;;;9.40;;
23470;SDS011;11908;50.806;4.424;2024-01-27T06:01:31;20.80;;;9.27;;
23470;SDS011;11908;50.806;4.424;2024-01-27T06:03:57;28.40;;;9.23;;
23470;SDS011;11908;50.806;4.424;2024-01-27T06:06:23;29.17;;;9.38;;
23470;SDS011;11908;50.806;4.424;2024-01-27T06:08:49;20.45;;;8.57;;
23470;SDS011;11908;50.806;4.424;2024-01-27T06:11:22;25.65;;;8.93;;
23470;SDS011;11908;50.806;4.424;2024-01-27T06:13:51;23.00;;;8.85;;
23470;SDS011;11908;50.806;4.424;2024-01-27T06:16:20;20.35;;;8.77;;
23470;SDS011;11908;50.806;4.424;2024-01-27T06:18:45;29.60;;;10.93;;
23470;SDS011;11908;50.806;4.424;2024-01-27T06:21:11;30.60;;;12.20;;
23470;SDS011;11908;50.806;4.424;2024-01-27T06:23:37;29.42;;;11.98;;
23470;SDS011;11908;50.806;4.424;2024-01-27T06:26:06;25.33;;;11.77;;
23470;SDS011;11908;50.806;4.424;2024-01-27T06:28:32;26.58;;;11.30;;
23470;SDS011;11908;50.806;4.424;2024-01-27T06:30:59;26.48;;;11.10;;
23470;SDS011;11908;50.806;4.424;2024-01-27T06:33:25;35.95;;;12.43;;
23470;SDS011;11908;50.806;4.424;2024-01-27T06:35:51;33.72;;;11.45;;
23470;SDS011;11908;50.806;4.424;2024-01-27T06:38:16;34.75;;;11.80;;
23470;SDS011;11908;50.806;4.424;2024-01-27T06:40:42;23.75;;;10.25;;
23470;SDS011;11908;50.806;4.424;2024-01-27T06:43:09;23.15;;;10.45;;
23470;SDS011;11908;50.806;4.424;2024-01-27T06:45:37;26.38;;;11.77;;
23470;SDS011;11908;50.806;4.424;2024-01-27T06:48:03;40.70;;;12.18;;
23470;SDS011;11908;50.806;4.424;2024-01-27T06:50:30;36.13;;;11.13;;
23470;SDS011;11908;50.806;4.424;2024-01-27T06:52:55;28.90;;;12.70;;
23470;SDS011;11908;50.806;4.424;2024-01-27T06:55:21;27.15;;;10.25;;
23470;SDS011;11908;50.806;4.424;2024-01-27T06:57:47;28.48;;;10.52;;
23470;SDS011;11908;50.806;4.424;2024-01-27T07:00:13;24.17;;;9.52;;
23470;SDS011;11908;50.806;4.424;2024-01-27T07:02:39;29.83;;;9.75;;
23470;SDS011;11908;50.806;4.424;2024-01-27T07:05:07;24.15;;;9.13;;
23470;SDS011;11908;50.806;4.424;2024-01-27T07:07:33;27.90;;;9.35;;
23470;SDS011;11908;50.806;4.424;2024-01-27T07:09:58;24.02;;;9.10;;
23470;SDS011;11908;50.806;4.424;2024-01-27T07:12:24;23.67;;;8.85;;
23470;SDS011;11908;50.806;4.424;2024-01-27T07:14:50;19.98;;;9.30;;
23470;SDS011;11908;50.806;4.424;2024-01-27T07:17:17;26.60;;;9.82;;
23470;SDS011;11908;50.806;4.424;2024-01-27T07:19:43;26.67;;;9.23;;
23470;SDS011;11908;50.806;4.424;2024-01-27T07:22:09;23.73;;;8.68;;
23470;SDS011;11908;50.806;4.424;2024-01-27T07:24:35;25.60;;;8.85;;
23470;SDS011;11908;50.806;4.424;2024-01-27T07:27:00;27.30;;;9.50;;
23470;SDS011;11908;50.806;4.424;2024-01-27T07:29:26;30.42;;;10.70;;
23470;SDS011;11908;50.806;4.424;2024-01-27T07:31:53;37.63;;;10.75;;
23470;SDS011;11908;50.806;4.424;2024-01-27T07:34:18;27.35;;;10.82;;
23470;SDS011;11908;50.806;4.424;2024-01-27T07:36:44;25.23;;;11.27;;
23470;SDS011;11908;50.806;4.424;2024-01-27T07:39:10;26.65;;;10.40;;
23470;SDS011;11908;50.806;4.424;2024-01-27T07:41:36;27.13;;;9.05;;
23470;SDS011;11908;50.806;4.424;2024-01-27T07:44:12;25.30;;;10.05;;
23470;SDS011;11908;50.806;4.424;2024-01-27T07:46:39;27.70;;;10.48;;
23470;SDS011;11908;50.806;4.424;2024-01-27T07:49:06;26.63;;;11.98;;
23470;SDS011;11908;50.806;4.424;2024-01-27T07:51:33;21.55;;;9.88;;
23470;SDS011;11908;50.806;4.424;2024-01-27T07:53:59;34.03;;;12.40;;
23470;SDS011;11908;50.806;4.424;2024-01-27T07:56:25;22.67;;;9.23;;
23470;SDS011;11908;50.806;4.424;2024-01-27T07:58:51;31.13;;;9.70;;
23470;SDS011;11908;50.806;4.424;2024-01-27T08:01:17;29.58;;;9.82;;
23470;SDS011;11908;50.806;4.424;2024-01-27T08:03:44;24.27;;;8.85;;
23470;SDS011;11908;50.806;4.424;2024-01-27T08:06:21;27.70;;;10.18;;
23470;SDS011;11908;50.806;4.424;2024-01-27T08:08:54;29.67;;;9.52;;
23470;SDS011;11908;50.806;4.424;2024-01-27T08:11:20;17.88;;;8.80;;
23470;SDS011;11908;50.806;4.424;2024-01-27T08:13:45;33.13;;;10.82;;
23470;SDS011;11908;50.806;4.424;2024-01-27T08:16:11;25.60;;;9.50;;
23470;SDS011;11908;50.806;4.424;2024-01-27T08:18:39;30.08;;;9.13;;
23470;SDS011;11908;50.806;4.424;2024-01-27T08:21:07;17.30;;;8.82;;
23470;SDS011;11908;50.806;4.424;2024-01-27T08:23:33;28.23;;;9.80;;
23470;SDS011;11908;50.806;4.424;2024-01-27T08:25:59;27.17;;;9.35;;
23470;SDS011;11908;50.806;4.424;2024-01-27T08:28:24;29.98;;;9.10;;
23470;SDS011;11908;50.806;4.424;2024-01-27T08:30:50;26.27;;;9.55;;
23470;SDS011;11908;50.806;4.424;2024-01-27T08:33:16;21.02;;;8.70;;
23470;SDS011;11908;50.806;4.424;2024-01-27T08:35:41;22.27;;;8.18;;
23470;SDS011;11908;50.806;4.424;2024-01-27T08:38:07;23.38;;;8.75;;
23470;SDS011;11908;50.806;4.424;2024-01-27T08:40:34;23.40;;;7.72;;
23470;SDS011;11908;50.806;4.424;2024-01-27T08:43:00;16.10;;;6.97;;
23470;SDS011;11908;50.806;4.424;2024-01-27T08:45:26;21.42;;;7.38;;
23470;SDS011;11908;50.806;4.424;2024-01-27T08:47:52;20.65;;;7.13;;
23470;SDS011;11908;50.806;4.424;2024-01-27T08:50:18;17.92;;;6.80;;
23470;SDS011;11908;50.806;4.424;2024-01-27T08:52:44;23.55;;;5.88;;
23470;SDS011;11908;50.806;4.424;2024-01-27T08:55:11;17.30;;;6.40;;
23470;SDS011;11908;50.806;4.424;2024-01-27T08:57:37;20.45;;;6.10;;
23470;SDS011;11908;50.806;4.424;2024-01-27T09:00:02;21.30;;;5.82;;
23470;SDS011;11908;50.806;4.424;2024-01-27T09:02:29;24.83;;;6.05;;
23470;SDS011;11908;50.806;4.424;2024-01-27T09:04:54;21.67;;;6.70;;
23470;SDS011;11908;50.806;4.424;2024-01-27T09:07:21;25.75;;;6.03;;
23470;SDS011;11908;50.806;4.424;2024-01-27T09:09:47;24.70;;;7.28;;
23470;SDS011;11908;50.806;4.424;2024-01-27T09:12:12;16.70;;;5.72;;
23470;SDS011;11908;50.806;4.424;2024-01-27T09:14:38;20.70;;;5.93;;
23470;SDS011;11908;50.806;4.424;2024-01-27T09:17:04;22.40;;;5.05;;
23470;SDS011;11908;50.806;4.424;2024-01-27T09:19:29;13.68;;;4.00;;
23470;SDS011;11908;50.806;4.424;2024-01-27T09:21:55;14.35;;;4.03;;
23470;SDS011;11908;50.806;4.424;2024-01-27T09:24:21;21.48;;;5.05;;
23470;SDS011;11908;50.806;4.424;2024-01-27T09:26:46;14.48;;;4.28;;
23470;SDS011;11908;50.806;4.424;2024-01-27T09:29:12;14.43;;;4.35;;
23470;SDS011;11908;50.806;4.424;2024-01-27T09:31:38;17.00;;;4.03;;
23470;SDS011;11908;50.806;4.424;2024-01-27T09:34:03;17.13;;;3.97;;
23470;SDS011;11908;50.806;4.424;2024-01-27T09:36:29;16.90;;;3.80;;
23470;SDS011;11908;50.806;4.424;2024-01-27T09:38:55;12.43;;;3.20;;
23470;SDS011;11908;50.806;4.424;2024-01-27T09:41:21;16.77;;;3.67;;
23470;SDS011;11908;50.806;4.424;2024-01-27T09:43:47;13.35;;;4.03;;
23470;SDS011;11908;50.806;4.424;2024-01-27T09:46:15;13.50;;;3.88;;
23470;SDS011;11908;50.806;4.424;2024-01-27T09:48:42;12.02;;;3.75;;
23470;SDS011;11908;50.806;4.424;2024-01-27T09:51:08;16.30;;;3.20;;
23470;SDS011;11908;50.806;4.424;2024-01-27T09:53:35;21.60;;;4.32;;
23470;SDS011;11908;50.806;4.424;2024-01-27T09:56:02;12.88;;;3.72;;
23470;SDS011;11908;50.806;4.424;2024-01-27T09:58:29;19.42;;;3.60;;
23470;SDS011;11908;50.806;4.424;2024-01-27T10:00:59;16.95;;;3.35;;
23470;SDS011;11908;50.806;4.424;2024-01-27T10:03:26;10.15;;;2.75;;
23470;SDS011;11908;50.806;4.424;2024-01-27T10:05:53;16.38;;;3.30;;
23470;SDS011;11908;50.806;4.424;2024-01-27T10:08:23;14.35;;;3.53;;
23470;SDS011;11908;50.806;4.424;2024-01-27T10:10:58;14.07;;;3.15;;
23470;SDS011;11908;50.806;4.424;2024-01-27T10:13:24;13.38;;;2.90;;
23470;SDS011;11908;50.806;4.424;2024-01-27T10:15:59;10.45;;;2.78;;
23470;SDS011;11908;50.806;4.424;2024-01-27T10:18:29;8.35;;;2.40;;
23470;SDS011;11908;50.806;4.424;2024-01-27T10:20:55;12.30;;;3.00;;
23470;SDS011;11908;50.806;4.424;2024-01-27T10:23:21;10.38;;;2.35;;
23470;SDS011;11908;50.806;4.424;2024-01-27T10:25:47;14.48;;;3.05;;
23470;SDS011;11908;50.806;4.424;2024-01-27T10:28:12;13.98;;;2.95;;
23470;SDS011;11908;50.806;4.424;2024-01-27T10:30:38;10.70;;;3.10;;
23470;SDS011;11908;50.806;4.424;2024-01-27T10:33:04;11.35;;;3.60;;
23470;SDS011;11908;50.806;4.424;2024-01-27T10:35:32;11.50;;;2.70;;
23470;SDS011;11908;50.806;4.424;2024-01-27T10:37:58;10.25;;;2.80;;
23470;SDS011;11908;50.806;4.424;2024-01-27T10:40:24;12.63;;;3.15;;
23470;SDS011;11908;50.806;4.424;2024-01-27T10:42:54;12.73;;;2.95;;
23470;SDS011;11908;50.806;4.424;2024-01-27T10:45:25;11.43;;;3.03;;
23470;SDS011;11908;50.806;4.424;2024-01-27T10:47:52;9.70;;;2.72;;
23470;SDS011;11908;50.806;4.424;2024-01-27T10:50:21;15.57;;;2.95;;
23470;SDS011;11908;50.806;4.424;2024-01-27T10:52:48;12.02;;;2.85;;
23470;SDS011;11908;50.806;4.424;2024-01-27T10:55:16;8.55;;;2.70;;
23470;SDS011;11908;50.806;4.424;2024-01-27T10:57:42;12.20;;;3.20;;
23470;SDS011;11908;50.806;4.424;2024-01-27T11:00:11;10.02;;;2.70;;
23470;SDS011;11908;50.806;4.424;2024-01-27T11:02:39;8.73;;;2.45;;
23470;SDS011;11908;50.806;4.424;2024-01-27T11:05:07;5.45;;;2.10;;
23470;SDS011;11908;50.806;4.424;2024-01-27T11:07:35;14.25;;;5.97;;
23470;SDS011;11908;50.806;4.424;2024-01-27T11:10:04;11.65;;;2.38;;
23470;SDS011;11908;50.806;4.424;2024-01-27T11:12:30;9.63;;;3.70;;
23470;SDS011;11908;50.806;4.424;2024-01-27T11:14:56;17.08;;;2.95;;
23470;SDS011;11908;50.806;4.424;2024-01-27T11:17:25;11.35;;;3.33;;
23470;SDS011;11908;50.806;4.424;2024-01-27T11:19:51;7.82;;;2.45;;
23470;SDS011;11908;50.806;4.424;2024-01-27T11:22:23;11.75;;;2.45;;
23470;SDS011;11908;50.806;4.424;2024-01-27T11:25:04;15.95;;;2.60;;
23470;SDS011;11908;50.806;4.424;2024-01-27T11:27:30;7.13;;;2.45;;
23470;SDS011;11908;50.806;4.424;2024-01-27T11:29:56;8.60;;;2.85;;
23470;SDS011;11908;50.806;4.424;2024-01-27T11:32:22;6.55;;;2.40;;
23470;SDS011;11908;50.806;4.424;2024-01-27T11:34:48;6.03;;;2.05;;
23470;SDS011;11908;50.806;4.424;2024-01-27T11:37:14;11.82;;;2.92;;
23470;SDS011;11908;50.806;4.424;2024-01-27T11:39:41;7.63;;;2.80;;
23470;SDS011;11908;50.806;4.424;2024-01-27T11:44:34;9.52;;;2.67;;
23470;SDS011;11908;50.806;4.424;2024-01-27T11:47:00;10.43;;;2.78;;
23470;SDS011;11908;50.806;4.424;2024-01-27T11:49:26;8.73;;;2.03;;
23470;SDS011;11908;50.806;4.424;2024-01-27T11:51:52;7.63;;;2.47;;
23470;SDS011;11908;50.806;4.424;2024-01-27T11:54:17;9.18;;;2.50;;
23470;SDS011;11908;50.806;4.424;2024-01-27T11:56:43;9.75;;;2.78;;
23470;SDS011;11908;50.806;4.424;2024-01-27T11:59:12;8.75;;;2.40;;
23470;SDS011;11908;50.806;4.424;2024-01-27T12:01:37;9.32;;;2.80;;
23470;SDS011;11908;50.806;4.424;2024-01-27T12:04:04;7.65;;;2.92;;
23470;SDS011;11908;50.806;4.424;2024-01-27T12:06:30;9.77;;;3.30;;
23470;SDS011;11908;50.806;4.424;2024-01-27T12:08:56;8.98;;;2.83;;
23470;SDS011;11908;50.806;4.424;2024-01-27T12:11:25;7.53;;;2.65;;
23470;SDS011;11908;50.806;4.424;2024-01-27T12:13:51;9.77;;;2.53;;
23470;SDS011;11908;50.806;4.424;2024-01-27T12:16:18;9.70;;;2.65;;
23470;SDS011;11908;50.806;4.424;2024-01-27T12:18:46;14.15;;;3.03;;
23470;SDS011;11908;50.806;4.424;2024-01-27T12:21:19;12.35;;;2.22;;
23470;SDS011;11908;50.806;4.424;2024-01-27T12:23:51;5.40;;;2.40;;
23470;SDS011;11908;50.806;4.424;2024-01-27T12:26:19;8.57;;;2.50;;
23470;SDS011;11908;50.806;4.424;2024-01-27T12:28:46;9.02;;;2.42;;
23470;SDS011;11908;50.806;4.424;2024-01-27T12:31:12;13.15;;;2.33;;
23470;SDS011;11908;50.806;4.424;2024-01-27T12:33:40;10.52;;;2.58;;
23470;SDS011;11908;50.806;4.424;2024-01-27T12:36:07;12.40;;;2.90;;
23470;SDS011;11908;50.806;4.424;2024-01-27T12:38:35;7.63;;;1.80;;
23470;SDS011;11908;50.806;4.424;2024-01-27T12:41:01;8.82;;;2.28;;
23470;SDS011;11908;50.806;4.424;2024-01-27T12:43:27;8.73;;;2.20;;
23470;SDS011;11908;50.806;4.424;2024-01-27T12:45:52;8.38;;;2.50;;
23470;SDS011;11908;50.806;4.424;2024-01-27T12:48:18;7.05;;;2.15;;
23470;SDS011;11908;50.806;4.424;2024-01-27T12:50:44;7.32;;;2.20;;
23470;SDS011;11908;50.806;4.424;2024-01-27T12:53:09;5.82;;;2.00;;
23470;SDS011;11908;50.806;4.424;2024-01-27T12:55:35;13.38;;;2.50;;
23470;SDS011;11908;50.806;4.424;2024-01-27T12:58:01;6.70;;;2.35;;
23470;SDS011;11908;50.806;4.424;2024-01-27T13:00:27;8.23;;;2.22;;
23470;SDS011;11908;50.806;4.424;2024-01-27T13:02:53;6.10;;;1.80;;
23470;SDS011;11908;50.806;4.424;2024-01-27T13:05:19;10.48;;;1.98;;
23470;SDS011;11908;50.806;4.424;2024-01-27T13:07:45;8.27;;;1.95;;
23470;SDS011;11908;50.806;4.424;2024-01-27T13:10:11;9.32;;;1.67;;
23470;SDS011;11908;50.806;4.424;2024-01-27T13:12:36;8.65;;;2.17;;
23470;SDS011;11908;50.806;4.424;2024-01-27T13:15:02;6.25;;;2.00;;
23470;SDS011;11908;50.806;4.424;2024-01-27T13:17:28;8.02;;;1.98;;
23470;SDS011;11908;50.806;4.424;2024-01-27T13:19:54;7.70;;;2.25;;
23470;SDS011;11908;50.806;4.424;2024-01-27T13:22:20;8.32;;;1.63;;
23470;SDS011;11908;50.806;4.424;2024-01-27T13:24:49;7.03;;;2.20;;
23470;SDS011;11908;50.806;4.424;2024-01-27T13:27:14;9.00;;;2.10;;
23470;SDS011;11908;50.806;4.424;2024-01-27T13:29:40;8.60;;;1.75;;
23470;SDS011;11908;50.806;4.424;2024-01-27T13:32:06;6.90;;;2.42;;
23470;SDS011;11908;50.806;4.424;2024-01-27T13:34:32;8.93;;;2.00;;
23470;SDS011;11908;50.806;4.424;2024-01-27T13:36:58;5.97;;;1.98;;
23470;SDS011;11908;50.806;4.424;2024-01-27T13:39:25;12.85;;;2.53;;
23470;SDS011;11908;50.806;4.424;2024-01-27T13:41:50;8.90;;;2.17;;
23470;SDS011;11908;50.806;4.424;2024-01-27T13:44:16;6.90;;;2.45;;
23470;SDS011;11908;50.806;4.424;2024-01-27T13:46:42;4.60;;;2.28;;
23470;SDS011;11908;50.806;4.424;2024-01-27T13:49:08;12.13;;;2.58;;
23470;SDS011;11908;50.806;4.424;2024-01-27T13:51:33;9.02;;;2.63;;
23470;SDS011;11908;50.806;4.424;2024-01-27T13:53:59;7.38;;;2.50;;
23470;SDS011;11908;50.806;4.424;2024-01-27T13:56:25;8.13;;;1.90;;
23470;SDS011;11908;50.806;4.424;2024-01-27T13:58:51;8.80;;;2.78;;
23470;SDS011;11908;50.806;4.424;2024-01-27T14:01:16;11.82;;;3.15;;
23470;SDS011;11908;50.806;4.424;2024-01-27T14:03:42;11.45;;;3.03;;
23470;SDS011;11908;50.806;4.424;2024-01-27T14:06:08;8.10;;;2.70;;
23470;SDS011;11908;50.806;4.424;2024-01-27T14:08:37;9.63;;;1.90;;
23470;SDS011;11908;50.806;4.424;2024-01-27T14:11:04;8.80;;;2.60;;
23470;SDS011;11908;50.806;4.424;2024-01-27T14:13:29;12.63;;;2.50;;
23470;SDS011;11908;50.806;4.424;2024-01-27T14:15:55;6.45;;;2.15;;
23470;SDS011;11908;50.806;4.424;2024-01-27T14:18:21;8.57;;;2.30;;
23470;SDS011;11908;50.806;4.424;2024-01-27T14:20:47;9.05;;;2.70;;
23470;SDS011;11908;50.806;4.424;2024-01-27T14:23:13;11.50;;;2.72;;
23470;SDS011;11908;50.806;4.424;2024-01-27T14:25:40;9.13;;;2.67;;
23470;SDS011;11908;50.806;4.424;2024-01-27T14:28:05;7.40;;;2.10;;
23470;SDS011;11908;50.806;4.424;2024-01-27T14:30:33;8.43;;;2.45;;
23470;SDS011;11908;50.806;4.424;2024-01-27T14:32:59;7.38;;;2.08;;